Cochiti Pueblo, New Mexico
Current Conditions -  °F | °C
As of 4:53 PM on Saturday 25 Oct 2014 (Local Time) from KSAF Reporting Station
Clear Clear  
Wind Chill: 76°   Ceiling: Unl
Heat Index: 76°   Visibility: 10mi
Dew Point: 25°   Wind: 15mph
Humidity: 15%   Direction: 230°SW
Pressure: 30.22"   Gusts: 21mph
Location:  35.61°N, 106.34°W
Report Text: KSAF 252253Z 23013G18KT 10SM CLR 24/M04 A3022 RMK AO2 SLP151 T02441039
Loading
Personal Weather Stations






























Interactive Weather Map
Tropical Storm Tracking
New forecast layout! Learn more

10-Day Weather Forecast

Advertisements
Track Severe Weather on mobile